sensor_id;sensor_type;location;lat;lon;timestamp;pressure;altitude;pressure_sealevel;temperature;humidity
65880;BME280;52661;51.364;6.054;2022-12-10T00:01:36;100461.91;;;0.04;100.00
65880;BME280;52661;51.364;6.054;2022-12-10T00:04:03;100464.91;;;0.03;100.00
65880;BME280;52661;51.364;6.054;2022-12-10T00:06:31;100465.44;;;-0.04;100.00
65880;BME280;52661;51.364;6.054;2022-12-10T00:08:58;100455.38;;;-0.07;100.00
65880;BME280;52661;51.364;6.054;2022-12-10T00:11:24;100461.09;;;-0.17;100.00
65880;BME280;52661;51.364;6.054;2022-12-10T00:13:50;100462.28;;;-0.06;100.00
65880;BME280;52661;51.364;6.054;2022-12-10T00:16:18;100455.59;;;-0.12;100.00
65880;BME280;52661;51.364;6.054;2022-12-10T00:18:44;100457.75;;;-0.06;100.00
65880;BME280;52661;51.364;6.054;2022-12-10T00:21:15;100454.03;;;-0.13;100.00
65880;BME280;52661;51.364;6.054;2022-12-10T00:23:42;100452.78;;;-0.16;100.00
65880;BME280;52661;51.364;6.054;2022-12-10T00:26:10;100454.94;;;-0.09;100.00
65880;BME280;52661;51.364;6.054;2022-12-10T00:28:36;100455.59;;;-0.12;100.00
65880;BME280;52661;51.364;6.054;2022-12-10T00:31:06;100459.97;;;-0.08;100.00
65880;BME280;52661;51.364;6.054;2022-12-10T00:33:33;100472.31;;;-0.03;100.00
65880;BME280;52661;51.364;6.054;2022-12-10T00:36:03;100480.03;;;-0.10;100.00
65880;BME280;52661;51.364;6.054;2022-12-10T00:38:29;100473.91;;;-0.11;100.00
65880;BME280;52661;51.364;6.054;2022-12-10T00:40:54;100475.25;;;-0.25;100.00
65880;BME280;52661;51.364;6.054;2022-12-10T00:43:19;100472.44;;;-0.29;100.00
65880;BME280;52661;51.364;6.054;2022-12-10T00:45:45;100480.91;;;-0.18;100.00
65880;BME280;52661;51.364;6.054;2022-12-10T00:48:10;100482.44;;;-0.17;100.00
65880;BME280;52661;51.364;6.054;2022-12-10T00:50:35;100476.00;;;-0.16;100.00
65880;BME280;52661;51.364;6.054;2022-12-10T00:53:01;100476.97;;;-0.21;100.00
65880;BME280;52661;51.364;6.054;2022-12-10T00:55:26;100476.09;;;-0.33;100.00
65880;BME280;52661;51.364;6.054;2022-12-10T00:57:51;100478.66;;;-0.45;100.00
65880;BME280;52661;51.364;6.054;2022-12-10T01:00:17;100478.81;;;-0.51;100.00
65880;BME280;52661;51.364;6.054;2022-12-10T01:02:42;100476.22;;;-0.59;100.00
65880;BME280;52661;51.364;6.054;2022-12-10T01:05:07;100473.41;;;-0.63;100.00
65880;BME280;52661;51.364;6.054;2022-12-10T01:07:33;100479.31;;;-0.57;100.00
65880;BME280;52661;51.364;6.054;2022-12-10T01:09:58;100474.00;;;-0.57;100.00
65880;BME280;52661;51.364;6.054;2022-12-10T01:12:23;100478.66;;;-0.45;100.00
65880;BME280;52661;51.364;6.054;2022-12-10T01:14:49;100480.88;;;-0.47;100.00
65880;BME280;52661;51.364;6.054;2022-12-10T01:17:14;100484.41;;;-0.35;100.00
65880;BME280;52661;51.364;6.054;2022-12-10T01:19:39;100482.91;;;-0.44;100.00
65880;BME280;52661;51.364;6.054;2022-12-10T01:22:05;100489.88;;;-0.31;100.00
65880;BME280;52661;51.364;6.054;2022-12-10T01:24:30;100495.84;;;-0.26;100.00
65880;BME280;52661;51.364;6.054;2022-12-10T01:26:56;100489.22;;;-0.28;100.00
65880;BME280;52661;51.364;6.054;2022-12-10T01:29:22;100495.72;;;-0.38;100.00
65880;BME280;52661;51.364;6.054;2022-12-10T01:31:51;100501.22;;;-0.43;100.00
65880;BME280;52661;51.364;6.054;2022-12-10T01:34:16;100494.38;;;-0.53;100.00
65880;BME280;52661;51.364;6.054;2022-12-10T01:36:44;100503.59;;;-0.50;100.00
65880;BME280;52661;51.364;6.054;2022-12-10T01:39:13;100497.03;;;-0.61;100.00
65880;BME280;52661;51.364;6.054;2022-12-10T01:42:13;100496.59;;;-0.63;100.00
65880;BME280;52661;51.364;6.054;2022-12-10T01:46:59;100507.47;;;-0.85;100.00
65880;BME280;52661;51.364;6.054;2022-12-10T01:49:38;100497.09;;;-0.78;100.00
65880;BME280;52661;51.364;6.054;2022-12-10T01:52:06;100509.91;;;-0.63;100.00
65880;BME280;52661;51.364;6.054;2022-12-10T01:54:35;100507.09;;;-0.58;100.00
65880;BME280;52661;51.364;6.054;2022-12-10T01:57:06;100510.22;;;-0.56;100.00
65880;BME280;52661;51.364;6.054;2022-12-10T01:59:33;100515.09;;;-0.58;100.00
65880;BME280;52661;51.364;6.054;2022-12-10T02:02:08;100510.13;;;-0.77;100.00
65880;BME280;52661;51.364;6.054;2022-12-10T02:10:14;100513.88;;;-0.69;100.00
65880;BME280;52661;51.364;6.054;2022-12-10T02:12:51;100517.78;;;-0.67;100.00
65880;BME280;52661;51.364;6.054;2022-12-10T02:15:23;100519.06;;;-0.73;100.00
65880;BME280;52661;51.364;6.054;2022-12-10T02:17:56;100527.50;;;-0.79;100.00
65880;BME280;52661;51.364;6.054;2022-12-10T02:20:28;100518.91;;;-0.85;100.00
65880;BME280;52661;51.364;6.054;2022-12-10T02:23:04;100516.41;;;-0.90;100.00
65880;BME280;52661;51.364;6.054;2022-12-10T02:25:55;100510.00;;;-1.06;100.00
65880;BME280;52661;51.364;6.054;2022-12-10T02:28:38;100511.75;;;-1.02;100.00
65880;BME280;52661;51.364;6.054;2022-12-10T02:31:05;100510.63;;;-1.01;100.00
65880;BME280;52661;51.364;6.054;2022-12-10T02:33:32;100513.63;;;-1.02;100.00
65880;BME280;52661;51.364;6.054;2022-12-10T02:36:00;100513.63;;;-1.02;100.00
65880;BME280;52661;51.364;6.054;2022-12-10T02:38:30;100510.63;;;-1.01;100.00
65880;BME280;52661;51.364;6.054;2022-12-10T02:40:59;100505.00;;;-0.99;100.00
65880;BME280;52661;51.364;6.054;2022-12-10T02:43:27;100513.00;;;-1.16;100.00
65880;BME280;52661;51.364;6.054;2022-12-10T02:45:54;100517.38;;;-1.12;100.00
65880;BME280;52661;51.364;6.054;2022-12-10T02:48:20;100506.72;;;-1.03;100.00
65880;BME280;52661;51.364;6.054;2022-12-10T02:50:45;100507.50;;;-1.11;100.00
65880;BME280;52661;51.364;6.054;2022-12-10T02:53:11;100514.84;;;-1.08;100.00
65880;BME280;52661;51.364;6.054;2022-12-10T02:58:35;100511.91;;;-1.32;100.00
65880;BME280;52661;51.364;6.054;2022-12-10T03:01:20;100513.16;;;-1.21;100.00
65880;BME280;52661;51.364;6.054;2022-12-10T03:03:52;100512.38;;;-1.13;100.00
65880;BME280;52661;51.364;6.054;2022-12-10T03:06:32;100519.28;;;-1.21;100.00
65880;BME280;52661;51.364;6.054;2022-12-10T03:09:17;100518.00;;;-1.32;100.00
65880;BME280;52661;51.364;6.054;2022-12-10T03:11:47;100522.06;;;-1.26;100.00
65880;BME280;52661;51.364;6.054;2022-12-10T03:14:19;100526.94;;;-1.28;100.00
65880;BME280;52661;51.364;6.054;2022-12-10T03:16:51;100517.56;;;-1.34;100.00
65880;BME280;52661;51.364;6.054;2022-12-10T03:19:20;100508.63;;;-1.21;100.00
65880;BME280;52661;51.364;6.054;2022-12-10T03:21:47;100518.78;;;-1.06;100.00
65880;BME280;52661;51.364;6.054;2022-12-10T03:24:16;100517.53;;;-1.17;100.00
65880;BME280;52661;51.364;6.054;2022-12-10T03:26:43;100520.84;;;-1.20;100.00
65880;BME280;52661;51.364;6.054;2022-12-10T03:29:21;100521.94;;;-1.12;100.00
65880;BME280;52661;51.364;6.054;2022-12-10T03:31:50;100518.47;;;-1.04;100.00
65880;BME280;52661;51.364;6.054;2022-12-10T03:34:18;100526.59;;;-0.92;100.00
65880;BME280;52661;51.364;6.054;2022-12-10T03:36:44;100524.38;;;-0.81;100.00
65880;BME280;52661;51.364;6.054;2022-12-10T03:39:10;100530.03;;;-0.83;100.00
65880;BME280;52661;51.364;6.054;2022-12-10T03:41:36;100532.69;;;-0.83;100.00
65880;BME280;52661;51.364;6.054;2022-12-10T03:44:01;100530.84;;;-0.91;100.00
65880;BME280;52661;51.364;6.054;2022-12-10T03:46:29;100528.19;;;-0.91;100.00
65880;BME280;52661;51.364;6.054;2022-12-10T03:48:55;100537.91;;;-0.95;100.00
65880;BME280;52661;51.364;6.054;2022-12-10T03:51:21;100530.19;;;-0.88;100.00
65880;BME280;52661;51.364;6.054;2022-12-10T03:53:47;100534.59;;;-0.92;100.00
65880;BME280;52661;51.364;6.054;2022-12-10T03:56:15;100536.00;;;-0.94;100.00
65880;BME280;52661;51.364;6.054;2022-12-10T03:58:41;100533.50;;;-0.91;100.00
65880;BME280;52661;51.364;6.054;2022-12-10T04:01:06;100532.88;;;-0.88;100.00
65880;BME280;52661;51.364;6.054;2022-12-10T04:03:37;100535.84;;;-0.81;100.00
65880;BME280;52661;51.364;6.054;2022-12-10T04:06:05;100530.81;;;-0.74;100.00
65880;BME280;52661;51.364;6.054;2022-12-10T04:08:31;100529.56;;;-0.85;100.00
65880;BME280;52661;51.364;6.054;2022-12-10T04:11:05;100543.34;;;-0.74;100.00
65880;BME280;52661;51.364;6.054;2022-12-10T04:13:33;100540.22;;;-0.76;100.00
65880;BME280;52661;51.364;6.054;2022-12-10T04:16:18;100535.84;;;-0.81;100.00
65880;BME280;52661;51.364;6.054;2022-12-10T04:18:56;100542.09;;;-0.77;100.00
65880;BME280;52661;51.364;6.054;2022-12-10T04:21:22;100531.91;;;-0.75;100.00
65880;BME280;52661;51.364;6.054;2022-12-10T04:24:09;100540.06;;;-0.80;100.00
65880;BME280;52661;51.364;6.054;2022-12-10T04:26:53;100543.34;;;-0.74;100.00
65880;BME280;52661;51.364;6.054;2022-12-10T04:29:22;100542.88;;;-0.76;100.00
65880;BME280;52661;51.364;6.054;2022-12-10T04:31:47;100537.84;;;-0.78;100.00
65880;BME280;52661;51.364;6.054;2022-12-10T04:34:13;100541.47;;;-0.74;100.00
65880;BME280;52661;51.364;6.054;2022-12-10T04:36:38;100537.72;;;-0.73;100.00
65880;BME280;52661;51.364;6.054;2022-12-10T04:39:04;100543.97;;;-0.77;100.00
65880;BME280;52661;51.364;6.054;2022-12-10T04:41:29;100531.28;;;-0.89;100.00
65880;BME280;52661;51.364;6.054;2022-12-10T04:43:55;100530.19;;;-0.96;100.00
65880;BME280;52661;51.364;6.054;2022-12-10T04:46:20;100540.22;;;-0.93;100.00
65880;BME280;52661;51.364;6.054;2022-12-10T04:48:45;100547.13;;;-0.92;100.00
65880;BME280;52661;51.364;6.054;2022-12-10T04:51:11;100540.84;;;-0.96;100.00
65880;BME280;52661;51.364;6.054;2022-12-10T04:53:36;100545.59;;;-1.02;100.00
65880;BME280;52661;51.364;6.054;2022-12-10T04:56:01;100538.81;;;-1.08;100.00
65880;BME280;52661;51.364;6.054;2022-12-10T04:58:30;100543.69;;;-1.02;100.00
65880;BME280;52661;51.364;6.054;2022-12-10T05:01:07;100544.63;;;-0.98;100.00
65880;BME280;52661;51.364;6.054;2022-12-10T05:03:34;100546.19;;;-0.88;100.00
65880;BME280;52661;51.364;6.054;2022-12-10T05:06:10;100546.66;;;-0.94;100.00
65880;BME280;52661;51.364;6.054;2022-12-10T05:08:37;100544.31;;;-0.87;100.00
65880;BME280;52661;51.364;6.054;2022-12-10T05:11:05;100546.19;;;-0.88;100.00
65880;BME280;52661;51.364;6.054;2022-12-10T05:13:31;100544.47;;;-0.84;100.00
65880;BME280;52661;51.364;6.054;2022-12-10T05:15:57;100541.66;;;-0.96;100.00
65880;BME280;52661;51.364;6.054;2022-12-10T05:18:22;100536.00;;;-0.94;100.00
65880;BME280;52661;51.364;6.054;2022-12-10T05:20:48;100539.47;;;-1.03;100.00
65880;BME280;52661;51.364;6.054;2022-12-10T05:23:13;100537.88;;;-1.04;100.00
65880;BME280;52661;51.364;6.054;2022-12-10T05:26:02;100546.22;;;-1.14;100.00
65880;BME280;52661;51.364;6.054;2022-12-10T05:28:29;100549.63;;;-1.05;100.00
65880;BME280;52661;51.364;6.054;2022-12-10T05:30:55;100555.44;;;-1.11;100.00
65880;BME280;52661;51.364;6.054;2022-12-10T05:33:21;100547.78;;;-1.13;100.00
65880;BME280;52661;51.364;6.054;2022-12-10T05:35:58;100550.28;;;-1.08;100.00
65880;BME280;52661;51.364;6.054;2022-12-10T05:38:25;100544.66;;;-1.23;100.00
65880;BME280;52661;51.364;6.054;2022-12-10T05:40:51;100546.38;;;-1.10;100.00
65880;BME280;52661;51.364;6.054;2022-12-10T05:43:16;100547.78;;;-1.21;100.00
65880;BME280;52661;51.364;6.054;2022-12-10T05:45:42;100548.56;;;-1.12;100.00
65880;BME280;52661;51.364;6.054;2022-12-10T05:48:10;100547.94;;;-1.09;100.00
65880;BME280;52661;51.364;6.054;2022-12-10T05:50:36;100554.81;;;-1.00;100.00
65880;BME280;52661;51.364;6.054;2022-12-10T05:53:01;100557.63;;;-1.05;100.00
65880;BME280;52661;51.364;6.054;2022-12-10T05:55:26;100555.75;;;-1.04;100.00
65880;BME280;52661;51.364;6.054;2022-12-10T05:57:54;100564.53;;;-1.04;100.00
65880;BME280;52661;51.364;6.054;2022-12-10T06:00:19;100560.91;;;-1.08;100.00
65880;BME280;52661;51.364;6.054;2022-12-10T06:02:46;100560.75;;;-1.11;100.00
65880;BME280;52661;51.364;6.054;2022-12-10T06:05:11;100557.00;;;-1.10;100.00
65880;BME280;52661;51.364;6.054;2022-12-10T06:07:36;100550.41;;;-1.04;100.00
65880;BME280;52661;51.364;6.054;2022-12-10T06:10:02;100557.47;;;-1.08;100.00
65880;BME280;52661;51.364;6.054;2022-12-10T06:12:28;100560.13;;;-1.08;100.00
65880;BME280;52661;51.364;6.054;2022-12-10T06:14:53;100564.53;;;-1.12;100.00
65880;BME280;52661;51.364;6.054;2022-12-10T06:17:18;100555.78;;;-1.13;100.00
65880;BME280;52661;51.364;6.054;2022-12-10T06:19:44;100552.16;;;-1.17;100.00
65880;BME280;52661;51.364;6.054;2022-12-10T06:22:09;100563.44;;;-1.20;100.00
65880;BME280;52661;51.364;6.054;2022-12-10T06:24:35;100560.59;;;-1.15;100.00
65880;BME280;52661;51.364;6.054;2022-12-10T06:27:00;100567.97;;;-1.12;100.00
65880;BME280;52661;51.364;6.054;2022-12-10T06:29:25;100574.88;;;-1.02;100.00
65880;BME280;52661;51.364;6.054;2022-12-10T06:31:50;100568.28;;;-1.05;100.00
65880;BME280;52661;51.364;6.054;2022-12-10T06:34:16;100572.06;;;-1.06;100.00
65880;BME280;52661;51.364;6.054;2022-12-10T06:36:41;100580.34;;;-1.16;100.00
65880;BME280;52661;51.364;6.054;2022-12-10T06:39:06;100578.19;;;-1.05;100.00
65880;BME280;52661;51.364;6.054;2022-12-10T06:41:32;100579.72;;;-1.04;100.00
65880;BME280;52661;51.364;6.054;2022-12-10T06:43:57;100584.28;;;-0.96;100.00
65880;BME280;52661;51.364;6.054;2022-12-10T06:46:24;100583.97;;;-1.03;100.00
65880;BME280;52661;51.364;6.054;2022-12-10T06:48:51;100594.16;;;-1.05;100.00
65880;BME280;52661;51.364;6.054;2022-12-10T06:51:17;100584.25;;;-1.22;100.00
65880;BME280;52661;51.364;6.054;2022-12-10T06:53:43;100586.94;;;-1.13;100.00
65880;BME280;52661;51.364;6.054;2022-12-10T06:56:12;100576.13;;;-1.17;100.00
65880;BME280;52661;51.364;6.054;2022-12-10T06:58:38;100583.34;;;-1.17;100.00
65880;BME280;52661;51.364;6.054;2022-12-10T07:01:11;100587.25;;;-1.23;100.00
65880;BME280;52661;51.364;6.054;2022-12-10T07:03:37;100588.81;;;-1.31;100.00
65880;BME280;52661;51.364;6.054;2022-12-10T07:06:04;100589.59;;;-1.30;100.00
65880;BME280;52661;51.364;6.054;2022-12-10T07:08:30;100595.69;;;-1.30;100.00
65880;BME280;52661;51.364;6.054;2022-12-10T07:10:56;100593.81;;;-1.29;100.00
65880;BME280;52661;51.364;6.054;2022-12-10T07:13:22;100599.78;;;-1.24;100.00
65880;BME280;52661;51.364;6.054;2022-12-10T07:15:47;100596.94;;;-1.19;100.00
65880;BME280;52661;51.364;6.054;2022-12-10T07:18:13;100601.47;;;-1.19;100.00
65880;BME280;52661;51.364;6.054;2022-12-10T07:20:38;100599.47;;;-1.05;100.00
65880;BME280;52661;51.364;6.054;2022-12-10T07:23:03;100603.06;;;-1.01;100.00
65880;BME280;52661;51.364;6.054;2022-12-10T07:25:29;100602.63;;;-0.94;100.00
65880;BME280;52661;51.364;6.054;2022-12-10T07:27:55;100606.38;;;-0.95;100.00
65880;BME280;52661;51.364;6.054;2022-12-10T07:30:20;100609.66;;;-1.07;100.00
65880;BME280;52661;51.364;6.054;2022-12-10T07:32:45;100599.59;;;-1.19;100.00
65880;BME280;52661;51.364;6.054;2022-12-10T07:35:11;100598.81;;;-1.19;100.00
65880;BME280;52661;51.364;6.054;2022-12-10T07:37:36;100596.66;;;-1.09;100.00
65880;BME280;52661;51.364;6.054;2022-12-10T07:40:02;100605.91;;;-1.06;100.00
65880;BME280;52661;51.364;6.054;2022-12-10T07:42:28;100608.25;;;-1.13;100.00
65880;BME280;52661;51.364;6.054;2022-12-10T07:44:53;100614.53;;;-1.09;100.00
65880;BME280;52661;51.364;6.054;2022-12-10T07:47:18;100614.19;;;-1.08;100.00
65880;BME280;52661;51.364;6.054;2022-12-10T07:49:44;100617.03;;;-1.13;100.00
65880;BME280;52661;51.364;6.054;2022-12-10T07:52:10;100622.34;;;-1.04;100.00
65880;BME280;52661;51.364;6.054;2022-12-10T07:54:35;100622.50;;;-1.01;100.00
65880;BME280;52661;51.364;6.054;2022-12-10T07:57:00;100622.03;;;-1.03;100.00
65880;BME280;52661;51.364;6.054;2022-12-10T07:59:26;100624.69;;;-1.11;100.00
65880;BME280;52661;51.364;6.054;2022-12-10T08:01:52;100625.59;;;-1.16;100.00
65880;BME280;52661;51.364;6.054;2022-12-10T08:04:17;100630.66;;;-1.06;100.00
65880;BME280;52661;51.364;6.054;2022-12-10T08:06:42;100624.69;;;-1.03;100.00
65880;BME280;52661;51.364;6.054;2022-12-10T08:09:09;100634.72;;;-1.08;100.00
65880;BME280;52661;51.364;6.054;2022-12-10T08:11:35;100629.22;;;-1.20;100.00
65880;BME280;52661;51.364;6.054;2022-12-10T08:14:00;100646.47;;;-1.09;100.00
65880;BME280;52661;51.364;6.054;2022-12-10T08:16:27;100630.97;;;-1.07;100.00
65880;BME280;52661;51.364;6.054;2022-12-10T08:18:55;100641.63;;;-1.07;100.00
65880;BME280;52661;51.364;6.054;2022-12-10T08:21:24;100644.59;;;-1.00;100.00
65880;BME280;52661;51.364;6.054;2022-12-10T08:23:50;100645.34;;;-1.08;100.00
65880;BME280;52661;51.364;6.054;2022-12-10T08:26:18;100643.19;;;-1.06;100.00
65880;BME280;52661;51.364;6.054;2022-12-10T08:28:44;100647.75;;;-0.98;100.00
65880;BME280;52661;51.364;6.054;2022-12-10T08:31:10;100647.44;;;-1.05;100.00
65880;BME280;52661;51.364;6.054;2022-12-10T08:33:37;100645.38;;;-1.00;100.00
65880;BME280;52661;51.364;6.054;2022-12-10T08:36:04;100650.06;;;-1.14;100.00
65880;BME280;52661;51.364;6.054;2022-12-10T08:38:30;100652.25;;;-1.07;100.00
65880;BME280;52661;51.364;6.054;2022-12-10T08:40:56;100664.31;;;-1.18;100.00
65880;BME280;52661;51.364;6.054;2022-12-10T08:43:21;100661.03;;;-1.07;100.00
65880;BME280;52661;51.364;6.054;2022-12-10T08:45:47;100656.81;;;-0.99;100.00
65880;BME280;52661;51.364;6.054;2022-12-10T08:48:12;100675.00;;;-0.92;100.00
65880;BME280;52661;51.364;6.054;2022-12-10T08:50:38;100680.97;;;-0.95;100.00
65880;BME280;52661;51.364;6.054;2022-12-10T08:53:03;100688.63;;;-1.03;100.00
65880;BME280;52661;51.364;6.054;2022-12-10T08:55:29;100682.81;;;-1.05;100.00
65880;BME280;52661;51.364;6.054;2022-12-10T08:57:56;100686.75;;;-1.02;100.00
65880;BME280;52661;51.364;6.054;2022-12-10T09:00:22;100690.03;;;-0.96;100.00
65880;BME280;52661;51.364;6.054;2022-12-10T09:02:47;100687.06;;;-0.95;100.00
65880;BME280;52661;51.364;6.054;2022-12-10T09:05:13;100696.59;;;-1.11;100.00
65880;BME280;52661;51.364;6.054;2022-12-10T09:07:38;100694.09;;;-1.08;100.00
65880;BME280;52661;51.364;6.054;2022-12-10T09:10:04;100705.03;;;-1.18;100.00
65880;BME280;52661;51.364;6.054;2022-12-10T09:12:29;100705.50;;;-1.16;100.00
65880;BME280;52661;51.364;6.054;2022-12-10T09:14:55;100700.66;;;-1.14;100.00
65880;BME280;52661;51.364;6.054;2022-12-10T09:17:21;100714.16;;;-1.10;100.00
65880;BME280;52661;51.364;6.054;2022-12-10T09:19:46;100700.69;;;-1.05;100.00
65880;BME280;52661;51.364;6.054;2022-12-10T09:22:12;100699.75;;;-1.01;100.00
65880;BME280;52661;51.364;6.054;2022-12-10T09:24:37;100706.34;;;-0.89;100.00
65880;BME280;52661;51.364;6.054;2022-12-10T09:27:03;100708.69;;;-0.96;100.00
65880;BME280;52661;51.364;6.054;2022-12-10T09:29:28;100707.91;;;-0.97;100.00
65880;BME280;52661;51.364;6.054;2022-12-10T09:31:54;100702.25;;;-1.04;100.00
65880;BME280;52661;51.364;6.054;2022-12-10T09:34:20;100712.28;;;-1.01;100.00
65880;BME280;52661;51.364;6.054;2022-12-10T09:36:46;100717.75;;;-0.98;100.00
65880;BME280;52661;51.364;6.054;2022-12-10T09:39:12;100713.38;;;-1.02;100.00
65880;BME280;52661;51.364;6.054;2022-12-10T09:44:28;100712.75;;;-0.90;100.00
65880;BME280;52661;51.364;6.054;2022-12-10T09:46:59;100705.22;;;-0.97;100.00
65880;BME280;52661;51.364;6.054;2022-12-10T09:52:21;100715.25;;;-0.94;100.00
65880;BME280;52661;51.364;6.054;2022-12-10T09:54:52;100709.66;;;-0.84;100.00
65880;BME280;52661;51.364;6.054;2022-12-10T09:57:28;100720.47;;;-0.80;100.00
65880;BME280;52661;51.364;6.054;2022-12-10T09:59:55;100719.38;;;-0.71;100.00
65880;BME280;52661;51.364;6.054;2022-12-10T10:02:29;100719.06;;;-0.69;100.00
65880;BME280;52661;51.364;6.054;2022-12-10T10:05:01;100726.75;;;-0.76;100.00
65880;BME280;52661;51.364;6.054;2022-12-10T10:07:31;100725.16;;;-0.69;100.00
65880;BME280;52661;51.364;6.054;2022-12-10T10:10:02;100723.00;;;-0.58;100.00
65880;BME280;52661;51.364;6.054;2022-12-10T10:12:30;100719.53;;;-0.67;100.00
65880;BME280;52661;51.364;6.054;2022-12-10T10:14:57;100728.00;;;-0.57;100.00
65880;BME280;52661;51.364;6.054;2022-12-10T10:17:36;100729.41;;;-0.51;100.00
65880;BME280;52661;51.364;6.054;2022-12-10T10:20:02;100721.75;;;-0.52;100.00
65880;BME280;52661;51.364;6.054;2022-12-10T10:22:28;100721.41;;;-0.51;100.00
65880;BME280;52661;51.364;6.054;2022-12-10T10:24:55;100716.56;;;-0.57;100.00
65880;BME280;52661;51.364;6.054;2022-12-10T10:27:24;100720.63;;;-0.60;100.00
65880;BME280;52661;51.364;6.054;2022-12-10T10:29:53;100720.00;;;-0.57;100.00
65880;BME280;52661;51.364;6.054;2022-12-10T10:32:43;100725.81;;;-0.63;100.00
65880;BME280;52661;51.364;6.054;2022-12-10T10:38:23;100717.50;;;-0.62;100.00
65880;BME280;52661;51.364;6.054;2022-12-10T10:40:56;100723.00;;;-0.67;100.00
65880;BME280;52661;51.364;6.054;2022-12-10T10:43:32;100713.59;;;-0.56;100.00
65880;BME280;52661;51.364;6.054;2022-12-10T10:46:01;100719.88;;;-0.52;100.00
65880;BME280;52661;51.364;6.054;2022-12-10T10:48:27;100714.84;;;-0.44;100.00
65880;BME280;52661;51.364;6.054;2022-12-10T10:50:55;100708.72;;;-0.45;100.00
65880;BME280;52661;51.364;6.054;2022-12-10T10:56:10;100704.00;;;-0.39;100.00
65880;BME280;52661;51.364;6.054;2022-12-10T10:58:55;100701.81;;;-0.37;100.00
65880;BME280;52661;51.364;6.054;2022-12-10T11:01:23;100703.38;;;-0.28;100.00
65880;BME280;52661;51.364;6.054;2022-12-10T11:03:54;100705.88;;;-0.23;100.00
65880;BME280;52661;51.364;6.054;2022-12-10T11:06:21;100698.19;;;-0.24;100.00
65880;BME280;52661;51.364;6.054;2022-12-10T11:08:47;100698.38;;;-0.29;100.00
65880;BME280;52661;51.364;6.054;2022-12-10T11:11:22;100698.19;;;-0.24;100.00
65880;BME280;52661;51.364;6.054;2022-12-10T11:13:50;100702.59;;;-0.28;100.00
65880;BME280;52661;51.364;6.054;2022-12-10T11:16:22;100705.56;;;-0.30;100.00
65880;BME280;52661;51.364;6.054;2022-12-10T11:18:59;100710.13;;;-0.39;100.00
65880;BME280;52661;51.364;6.054;2022-12-10T11:21:29;100711.53;;;-0.41;100.00
65880;BME280;52661;51.364;6.054;2022-12-10T11:23:56;100713.25;;;-0.28;100.00
65880;BME280;52661;51.364;6.054;2022-12-10T11:32:16;100712.97;;;-0.44;100.00
65880;BME280;52661;51.364;6.054;2022-12-10T11:37:35;100704.94;;;-0.35;100.00
65880;BME280;52661;51.364;6.054;2022-12-10T11:56:47;100703.53;;;-0.24;100.00
65880;BME280;52661;51.364;6.054;2022-12-10T11:59:31;100700.41;;;-0.26;100.00
65880;BME280;52661;51.364;6.054;2022-12-10T12:02:12;100701.19;;;-0.34;100.00
65880;BME280;52661;51.364;6.054;2022-12-10T12:05:19;100697.28;;;-0.37;100.00
65880;BME280;52661;51.364;6.054;2022-12-10T12:10:47;100692.25;;;-0.38;100.00
65880;BME280;52661;51.364;6.054;2022-12-10T12:18:41;100689.25;;;-0.54;100.00
65880;BME280;52661;51.364;6.054;2022-12-10T12:21:11;100693.06;;;-0.55;100.00
65880;BME280;52661;51.364;6.054;2022-12-10T12:23:55;100691.16;;;-0.46;100.00
65880;BME280;52661;51.364;6.054;2022-12-10T12:26:46;100700.88;;;-0.41;100.00
65880;BME280;52661;51.364;6.054;2022-12-10T12:29:25;100693.19;;;-0.34;100.00
65880;BME280;52661;51.364;6.054;2022-12-10T12:32:17;100688.50;;;-0.37;100.00
65880;BME280;52661;51.364;6.054;2022-12-10T12:35:20;100697.56;;;-0.21;100.00
65880;BME280;52661;51.364;6.054;2022-12-10T12:37:57;100699.94;;;-0.37;100.00
65880;BME280;52661;51.364;6.054;2022-12-10T12:43:12;100691.31;;;-0.34;100.00
65880;BME280;52661;51.364;6.054;2022-12-10T12:45:41;100692.09;;;-0.42;100.00
65880;BME280;52661;51.364;6.054;2022-12-10T12:48:38;100685.81;;;-0.37;100.00
65880;BME280;52661;51.364;6.054;2022-12-10T12:51:16;100685.19;;;-0.34;100.00
65880;BME280;52661;51.364;6.054;2022-12-10T12:53:42;100689.56;;;-0.30;100.00
65880;BME280;52661;51.364;6.054;2022-12-10T12:56:17;100685.97;;;-0.34;100.00
65880;BME280;52661;51.364;6.054;2022-12-10T12:59:27;100697.72;;;-0.26;100.00
65880;BME280;52661;51.364;6.054;2022-12-10T13:02:02;100706.06;;;-0.36;100.00
65880;BME280;52661;51.364;6.054;2022-12-10T13:04:32;100707.94;;;-0.45;100.00
65880;BME280;52661;51.364;6.054;2022-12-10T13:09:47;100710.44;;;-0.66;100.00
65880;BME280;52661;51.364;6.054;2022-12-10T13:12:26;100714.22;;;-0.59;100.00
65880;BME280;52661;51.364;6.054;2022-12-10T13:17:28;100715.94;;;-0.63;100.00
65880;BME280;52661;51.364;6.054;2022-12-10T13:20:29;100715.63;;;-0.70;100.00
65880;BME280;52661;51.364;6.054;2022-12-10T13:39:35;100730.06;;;-0.62;100.00
65880;BME280;52661;51.364;6.054;2022-12-10T13:50:51;100726.28;;;-0.70;100.00
65880;BME280;52661;51.364;6.054;2022-12-10T13:56:18;100728.94;;;-0.78;100.00
65880;BME280;52661;51.364;6.054;2022-12-10T13:59:13;100730.00;;;-0.79;100.00
65880;BME280;52661;51.364;6.054;2022-12-10T14:07:16;100735.19;;;-0.83;100.00
65880;BME280;52661;51.364;6.054;2022-12-10T14:09:56;100740.50;;;-0.83;100.00
65880;BME280;52661;51.364;6.054;2022-12-10T14:12:31;100739.41;;;-0.90;100.00
65880;BME280;52661;51.364;6.054;2022-12-10T14:15:00;100730.81;;;-0.87;100.00
65880;BME280;52661;51.364;6.054;2022-12-10T14:17:33;100737.69;;;-0.86;100.00
65880;BME280;52661;51.364;6.054;2022-12-10T14:20:00;100738.63;;;-0.82;100.00
65880;BME280;52661;51.364;6.054;2022-12-10T14:22:37;100737.56;;;-0.73;100.00
65880;BME280;52661;51.364;6.054;2022-12-10T14:25:09;100743.66;;;-0.72;100.00
65880;BME280;52661;51.364;6.054;2022-12-10T14:27:36;100747.75;;;-0.66;100.00
65880;BME280;52661;51.364;6.054;2022-12-10T14:30:23;100746.19;;;-0.67;100.00